Time;durP1;ratioP1;P1;durP2;ratioP2;P2;SDS_P1;SDS_P2;PMS_P1;PMS_P2;Temp;Humidity;BMP_temperature;BMP_pressure;BME280_temperature;BME280_humidity;BME280_pressure;Samples;Min_cycle;Max_cycle;Signal;HPM_P1;HPM_P2
2020/12/26 00:01:53;;;;;;;14.20;10.30;;;22.80;54.20;;;;;;5092089;28;20170;-76
2020/12/26 00:04:19;;;;;;;12.67;10.00;;;22.80;54.20;;;;;;5093422;28;20162;-76
2020/12/26 00:06:52;;;;;;;12.27;9.70;;;22.80;54.20;;;;;;5093274;28;20190;-76
2020/12/26 00:09:17;;;;;;;12.97;10.00;;;22.80;54.20;;;;;;5093620;28;20249;-76
2020/12/26 00:11:43;;;;;;;11.47;9.77;;;22.80;54.20;;;;;;5093428;28;21024;-75
2020/12/26 00:14:10;;;;;;;15.37;11.13;;;22.80;54.20;;;;;;5093512;28;20169;-76
2020/12/26 00:16:35;;;;;;;12.30;10.07;;;22.80;54.20;;;;;;5093127;28;20189;-76
2020/12/26 00:19:01;;;;;;;12.20;9.30;;;22.80;54.20;;;;;;5093216;28;20456;-76
2020/12/26 00:21:26;;;;;;;12.57;10.40;;;22.80;54.30;;;;;;5093100;28;20258;-76
2020/12/26 00:23:52;;;;;;;11.40;9.90;;;22.70;54.20;;;;;;5093412;28;20169;-76
2020/12/26 00:26:18;;;;;;;12.03;9.30;;;22.70;54.20;;;;;;5093019;28;20197;-76
2020/12/26 00:28:44;;;;;;;12.23;10.00;;;22.70;54.20;;;;;;5093316;28;20729;-75
2020/12/26 00:31:15;;;;;;;13.50;9.13;;;22.70;54.20;;;;;;5093428;28;20558;-75
2020/12/26 00:33:41;;;;;;;10.60;8.27;;;22.80;54.30;;;;;;5093236;28;20407;-75
2020/12/26 00:36:06;;;;;;;13.40;10.67;;;22.70;54.20;;;;;;5092944;28;20442;-76
2020/12/26 00:38:33;;;;;;;13.77;9.17;;;22.70;54.30;;;;;;5093262;28;20166;-76
2020/12/26 00:40:58;;;;;;;12.20;10.27;;;22.70;54.30;;;;;;5092928;28;20174;-76
2020/12/26 00:43:24;;;;;;;12.80;10.57;;;22.70;54.30;;;;;;5092955;28;20426;-76
2020/12/26 00:45:49;;;;;;;13.70;9.43;;;22.70;54.30;;;;;;5093276;28;20219;-75
2020/12/26 00:48:15;;;;;;;12.20;9.80;;;22.70;54.30;;;;;;5092860;28;20170;-76
2020/12/26 00:50:41;;;;;;;11.17;8.97;;;22.70;54.30;;;;;;5091538;28;20197;-76
2020/12/26 00:53:06;;;;;;;12.03;10.60;;;22.70;54.30;;;;;;5092813;28;20667;-76
2020/12/26 00:55:32;;;;;;;12.30;9.60;;;22.70;54.40;;;;;;5092605;28;20706;-76
2020/12/26 00:57:57;;;;;;;10.67;9.57;;;22.70;54.30;;;;;;5092814;28;20173;-75
2020/12/26 01:00:23;;;;;;;13.10;9.67;;;22.70;54.40;;;;;;5092983;28;20215;-75
2020/12/26 01:02:48;;;;;;;12.20;9.20;;;22.70;54.40;;;;;;5092784;28;20199;-76
2020/12/26 01:05:14;;;;;;;10.40;9.20;;;22.70;54.40;;;;;;5092694;28;20231;-76
2020/12/26 01:07:40;;;;;;;9.97;8.50;;;22.70;54.40;;;;;;5092454;28;20288;-75
2020/12/26 01:10:06;;;;;;;11.07;9.60;;;22.70;54.40;;;;;;5092659;28;20253;-75
2020/12/26 01:12:32;;;;;;;11.07;8.93;;;22.60;54.30;;;;;;5092841;28;20190;-76
2020/12/26 01:14:58;;;;;;;10.30;9.20;;;22.60;54.30;;;;;;5092909;28;20412;-75
2020/12/26 01:17:24;;;;;;;10.33;8.73;;;22.60;54.30;;;;;;5092786;28;20189;-76
2020/12/26 01:19:50;;;;;;;10.47;8.53;;;22.60;54.30;;;;;;5092850;28;20158;-76
2020/12/26 01:22:16;;;;;;;12.13;9.80;;;22.60;54.30;;;;;;5092814;28;20416;-76
2020/12/26 01:24:42;;;;;;;11.40;9.00;;;22.60;54.40;;;;;;5092439;28;20651;-76
2020/12/26 01:27:08;;;;;;;10.37;9.37;;;22.60;54.40;;;;;;5092690;28;20231;-75
2020/12/26 01:29:37;;;;;;;10.77;8.37;;;22.60;54.40;;;;;;5092728;28;20416;-76
2020/12/26 01:32:02;;;;;;;10.03;8.93;;;22.60;54.40;;;;;;5093778;28;20455;-75
2020/12/26 01:34:28;;;;;;;8.50;7.60;;;22.60;54.40;;;;;;5096160;28;20412;-75
2020/12/26 01:36:54;;;;;;;11.43;9.00;;;22.60;54.40;;;;;;5096113;28;20532;-75
2020/12/26 01:39:20;;;;;;;12.00;8.90;;;22.60;54.40;;;;;;5096040;28;20215;-75
2020/12/26 01:41:55;;;;;;;13.67;8.67;;;22.60;54.40;;;;;;5096210;28;20173;-76
2020/12/26 01:44:22;;;;;;;9.77;8.57;;;22.60;54.40;;;;;;5095875;28;20468;-75
2020/12/26 01:46:49;;;;;;;9.17;7.90;;;22.60;54.40;;;;;;5095819;28;20423;-76
2020/12/26 01:49:19;;;;;;;8.83;7.93;;;22.60;54.40;;;;;;5095815;28;20422;-76
2020/12/26 01:51:45;;;;;;;10.00;8.67;;;22.60;54.40;;;;;;5096217;28;20999;-75
2020/12/26 01:54:12;;;;;;;10.93;8.53;;;22.60;54.50;;;;;;5095521;28;20412;-76
2020/12/26 01:56:41;;;;;;;10.23;8.73;;;22.60;54.40;;;;;;5095931;28;20942;-75
2020/12/26 01:59:07;;;;;;;9.90;8.63;;;22.60;54.40;;;;;;5095610;28;20408;-75
2020/12/26 02:01:39;;;;;;;10.73;9.10;;;22.60;54.50;;;;;;5095601;28;20514;-76
2020/12/26 02:04:05;;;;;;;9.93;7.90;;;22.60;54.50;;;;;;5095595;28;20951;-75
2020/12/26 02:06:57;;;;;;;11.17;8.30;;;22.60;54.50;;;;;;5095663;28;20438;-76
2020/12/26 02:09:24;;;;;;;10.20;7.93;;;22.60;54.40;;;;;;5095768;28;20388;-75
2020/12/26 02:11:50;;;;;;;9.60;8.13;;;22.50;54.40;;;;;;5095543;28;20450;-75
2020/12/26 02:14:15;;;;;;;12.37;9.20;;;22.50;54.40;;;;;;5095388;28;20495;-76
2020/12/26 02:16:42;;;;;;;8.73;7.93;;;22.50;54.40;;;;;;5095809;28;20200;-76
2020/12/26 02:19:07;;;;;;;8.13;7.27;;;22.50;54.40;;;;;;5095274;28;20181;-75
2020/12/26 02:21:33;;;;;;;8.83;7.80;;;22.50;54.40;;;;;;5095296;28;20416;-75
2020/12/26 02:23:59;;;;;;;10.30;8.53;;;22.50;54.40;;;;;;5095140;28;20201;-76
2020/12/26 02:26:31;;;;;;;9.73;7.60;;;22.50;54.40;;;;;;5095534;28;20209;-75
2020/12/26 02:28:56;;;;;;;9.67;7.40;;;22.50;54.40;;;;;;5095047;28;20283;-75
2020/12/26 02:31:22;;;;;;;11.47;9.03;;;22.50;54.40;;;;;;5093675;28;20557;-75
2020/12/26 02:33:48;;;;;;;10.73;7.90;;;22.50;54.40;;;;;;5095033;28;20255;-76
2020/12/26 02:36:14;;;;;;;8.43;7.53;;;22.50;54.40;;;;;;5094817;28;20672;-75
2020/12/26 02:38:40;;;;;;;9.10;7.70;;;22.50;54.40;;;;;;5094851;28;20174;-76
2020/12/26 02:41:06;;;;;;;8.50;7.60;;;22.50;54.40;;;;;;5094835;28;20227;-75
2020/12/26 02:43:32;;;;;;;8.40;7.53;;;22.50;54.40;;;;;;5094726;28;20439;-75
2020/12/26 02:45:58;;;;;;;9.83;8.00;;;22.50;54.40;;;;;;5093393;28;20472;-75
2020/12/26 02:48:24;;;;;;;10.20;7.70;;;22.50;54.40;;;;;;5094709;28;20226;-76
2020/12/26 02:50:49;;;;;;;9.67;8.27;;;22.50;54.40;;;;;;5094834;28;20210;-76
2020/12/26 02:53:15;;;;;;;9.43;8.00;;;22.50;54.40;;;;;;5094631;28;20640;-75
2020/12/26 02:55:41;;;;;;;8.93;7.63;;;22.50;54.40;;;;;;5094367;28;20648;-76
2020/12/26 02:58:06;;;;;;;9.00;8.10;;;22.50;54.40;;;;;;5094482;28;20166;-75
2020/12/26 03:00:32;;;;;;;9.20;7.57;;;22.50;54.40;;;;;;5094771;28;20165;-75
2020/12/26 03:02:58;;;;;;;7.30;6.57;;;22.50;54.50;;;;;;5094693;28;20170;-75
2020/12/26 03:05:24;;;;;;;8.10;7.07;;;22.50;54.40;;;;;;5094171;28;20166;-76
2020/12/26 03:07:49;;;;;;;8.80;7.90;;;22.50;54.40;;;;;;5094234;28;20182;-75
2020/12/26 03:10:15;;;;;;;7.80;7.00;;;22.50;54.40;;;;;;5092895;28;20445;-75
2020/12/26 03:12:41;;;;;;;8.03;7.27;;;22.50;54.40;;;;;;5092805;28;20223;-76
2020/12/26 03:15:06;;;;;;;7.63;6.53;;;22.50;54.50;;;;;;5094226;28;20166;-75
2020/12/26 03:17:32;;;;;;;8.13;7.13;;;22.50;54.50;;;;;;5094077;28;20663;-75
2020/12/26 03:19:59;;;;;;;8.63;7.30;;;22.50;54.50;;;;;;5094380;28;20510;-75
2020/12/26 03:22:26;;;;;;;9.47;7.80;;;22.50;54.50;;;;;;5094048;28;20177;-75
2020/12/26 03:24:52;;;;;;;8.40;7.10;;;22.40;54.40;;;;;;5094094;28;20407;-76
2020/12/26 03:27:18;;;;;;;8.77;7.03;;;22.40;54.50;;;;;;5093902;28;20914;-76
2020/12/26 03:29:43;;;;;;;9.53;6.73;;;22.40;54.50;;;;;;5093922;28;20435;-75
2020/12/26 03:32:10;;;;;;;8.13;7.00;;;22.40;54.50;;;;;;5093784;28;20288;-76
2020/12/26 03:34:35;;;;;;;9.60;7.43;;;22.40;54.60;;;;;;5092267;28;20182;-75
2020/12/26 03:37:01;;;;;;;8.00;6.73;;;22.40;54.60;;;;;;5093736;28;20427;-76
2020/12/26 03:39:27;;;;;;;8.90;7.33;;;22.40;54.60;;;;;;5093722;28;20177;-76
2020/12/26 03:41:52;;;;;;;6.73;6.03;;;22.40;54.60;;;;;;5093734;28;20204;-76
2020/12/26 03:44:18;;;;;;;7.53;6.70;;;22.40;54.60;;;;;;5093906;28;20169;-75
2020/12/26 03:46:43;;;;;;;8.93;7.53;;;22.40;54.70;;;;;;5093694;28;20200;-75
2020/12/26 03:49:09;;;;;;;9.60;6.73;;;22.40;54.70;;;;;;5094153;28;20620;-75
2020/12/26 03:51:35;;;;;;;6.43;5.70;;;22.30;54.60;;;;;;5093723;28;20198;-75
2020/12/26 03:54:00;;;;;;;7.80;6.73;;;22.30;54.60;;;;;;5092015;28;20227;-75
2020/12/26 03:56:26;;;;;;;9.60;6.70;;;22.30;54.70;;;;;;5093520;28;20323;-75
2020/12/26 03:58:52;;;;;;;8.17;6.00;;;22.30;54.70;;;;;;5094003;28;20173;-75
2020/12/26 04:01:17;;;;;;;8.00;6.70;;;22.30;54.70;;;;;;5093655;28;20218;-76
2020/12/26 04:03:43;;;;;;;7.60;6.60;;;22.30;54.60;;;;;;5093304;28;20173;-75
2020/12/26 04:06:08;;;;;;;7.07;6.03;;;22.30;54.60;;;;;;5093511;28;20197;-76
2020/12/26 04:08:34;;;;;;;8.37;6.20;;;22.30;54.90;;;;;;5093854;28;20648;-75
2020/12/26 04:10:59;;;;;;;6.50;5.90;;;22.40;54.70;;;;;;5093487;28;20209;-75
2020/12/26 04:13:25;;;;;;;6.93;6.00;;;22.30;54.60;;;;;;5093270;28;20569;-75
2020/12/26 04:15:51;;;;;;;6.40;5.80;;;22.30;54.60;;;;;;5093164;28;20291;-75
2020/12/26 04:18:16;;;;;;;6.77;6.07;;;22.30;54.50;;;;;;5093243;28;20173;-75
2020/12/26 04:20:42;;;;;;;6.97;6.27;;;22.40;54.60;;;;;;5093452;28;20178;-75
2020/12/26 04:23:07;;;;;;;6.73;5.83;;;22.30;54.50;;;;;;5093140;28;20170;-75
2020/12/26 04:25:33;;;;;;;8.97;6.47;;;22.40;54.60;;;;;;5093062;28;20228;-75
2020/12/26 04:27:58;;;;;;;6.47;5.83;;;22.40;54.50;;;;;;5093146;28;20177;-75
2020/12/26 04:30:24;;;;;;;7.53;5.80;;;22.40;54.50;;;;;;5092985;28;20172;-73
2020/12/26 04:32:52;;;;;;;6.77;6.07;;;22.40;54.50;;;;;;5093504;28;20236;-74
2020/12/26 04:35:20;;;;;;;6.30;5.70;;;22.40;54.50;;;;;;5093010;28;20170;-74
2020/12/26 04:37:47;;;;;;;7.67;6.40;;;22.40;54.50;;;;;;5093186;28;20432;-74
2020/12/26 04:40:13;;;;;;;7.57;5.87;;;22.40;54.50;;;;;;5092959;28;20404;-74
2020/12/26 04:42:39;;;;;;;6.83;6.20;;;22.40;54.50;;;;;;5092959;28;20452;-73
2020/12/26 04:45:05;;;;;;;5.97;5.37;;;22.40;54.50;;;;;;5092846;28;20499;-74
2020/12/26 04:47:39;;;;;;;5.57;5.03;;;22.40;54.50;;;;;;5092869;28;20258;-74
2020/12/26 04:50:06;;;;;;;6.60;5.57;;;22.40;54.50;;;;;;5093442;28;20416;-74
2020/12/26 04:52:36;;;;;;;7.83;6.30;;;22.40;54.60;;;;;;5092758;28;20454;-74
2020/12/26 04:55:04;;;;;;;5.93;5.33;;;22.30;55.10;;;;;;5092799;28;20518;-74
2020/12/26 04:57:36;;;;;;;6.90;5.70;;;22.30;54.60;;;;;;5092988;28;20485;-74
2020/12/26 05:00:04;;;;;;;6.23;5.57;;;22.30;55.10;;;;;;5092936;28;20447;-74
2020/12/26 05:02:36;;;;;;;6.50;5.77;;;22.30;54.60;;;;;;5092739;28;20465;-74
2020/12/26 05:05:04;;;;;;;8.53;5.60;;;22.30;54.60;;;;;;5093054;28;20408;-74
2020/12/26 05:07:34;;;;;;;8.87;6.07;;;22.30;55.20;;;;;;5096421;28;20807;-74
2020/12/26 05:10:00;;;;;;;6.13;5.53;;;22.30;54.60;;;;;;5096606;28;20498;-74
2020/12/26 05:12:26;;;;;;;5.63;5.10;;;22.30;54.60;;;;;;5096457;28;20533;-74
2020/12/26 05:14:52;;;;;;;7.20;5.47;;;22.30;54.60;;;;;;5096757;28;20177;-74
2020/12/26 05:17:19;;;;;;;5.67;5.17;;;22.30;54.60;;;;;;5096996;28;20193;-73
2020/12/26 05:19:47;;;;;;;6.10;5.50;;;22.30;54.60;;;;;;5096466;28;20853;-74
2020/12/26 05:22:13;;;;;;;5.47;4.97;;;22.30;54.60;;;;;;5096634;28;20419;-74
2020/12/26 05:24:39;;;;;;;5.40;4.90;;;22.30;54.60;;;;;;5096642;28;20408;-74
2020/12/26 05:27:04;;;;;;;6.07;5.47;;;22.30;54.50;;;;;;5096217;28;20431;-74
2020/12/26 05:29:35;;;;;;;7.47;6.27;;;22.30;54.60;;;;;;5096543;28;20625;-74
2020/12/26 05:32:04;;;;;;;5.80;5.20;;;22.30;54.50;;;;;;5096482;28;20194;-74
2020/12/26 05:34:34;;;;;;;6.07;5.50;;;22.30;54.50;;;;;;5096111;28;20418;-73
2020/12/26 05:37:02;;;;;;;5.87;5.23;;;22.30;54.40;;;;;;5094772;28;20432;-74
2020/12/26 05:39:32;;;;;;;5.13;4.63;;;22.30;54.40;;;;;;5096039;28;20446;-74
2020/12/26 05:41:58;;;;;;;6.70;5.70;;;22.30;54.40;;;;;;5096037;28;20434;-73
2020/12/26 05:44:26;;;;;;;5.73;5.10;;;22.40;54.40;;;;;;5094668;28;20420;-74
2020/12/26 05:46:53;;;;;;;5.33;4.87;;;22.40;54.40;;;;;;5096129;28;20197;-74
2020/12/26 05:49:32;;;;;;;6.10;5.50;;;22.40;54.40;;;;;;5096613;28;20434;-73
2020/12/26 05:52:11;;;;;;;5.63;4.70;;;22.40;54.30;;;;;;5096052;28;20443;-74
2020/12/26 05:54:37;;;;;;;6.53;5.03;;;22.40;54.30;;;;;;5095723;28;20439;-74
2020/12/26 05:57:13;;;;;;;6.07;5.47;;;22.40;54.30;;;;;;5095734;28;20515;-74
2020/12/26 05:59:45;;;;;;;5.73;5.13;;;22.40;54.30;;;;;;5095647;28;20503;-73
2020/12/26 06:02:24;;;;;;;4.83;4.40;;;22.50;54.40;;;;;;5096155;28;20442;-74
2020/12/26 06:04:55;;;;;;;6.13;5.63;;;22.50;54.30;;;;;;5095855;28;20412;-74
2020/12/26 06:07:26;;;;;;;6.27;5.13;;;22.50;54.30;;;;;;5095413;28;20446;-74
2020/12/26 06:09:54;;;;;;;5.20;4.70;;;22.50;54.40;;;;;;5095748;28;20451;-73
2020/12/26 06:12:21;;;;;;;5.23;4.37;;;22.50;54.30;;;;;;5095596;28;20466;-74
2020/12/26 06:14:48;;;;;;;5.67;4.37;;;22.50;54.30;;;;;;5095361;28;20457;-73
2020/12/26 06:17:32;;;;;;;5.20;4.70;;;22.50;54.20;;;;;;5095161;28;20453;-74
2020/12/26 06:20:08;;;;;;;5.20;4.70;;;22.50;54.20;;;;;;5095471;28;20432;-74
2020/12/26 06:22:43;;;;;;;5.30;4.63;;;22.50;54.30;;;;;;5095285;28;20402;-74
2020/12/26 06:25:14;;;;;;;5.13;4.63;;;22.50;54.20;;;;;;5095133;28;20413;-74
2020/12/26 06:27:51;;;;;;;5.43;4.63;;;22.50;54.30;;;;;;5095328;28;20454;-74
2020/12/26 06:30:18;;;;;;;5.40;4.80;;;22.50;54.20;;;;;;5095326;28;20411;-73
2020/12/26 06:32:45;;;;;;;4.47;4.00;;;22.50;54.20;;;;;;5095205;28;20491;-73
2020/12/26 06:35:12;;;;;;;4.53;4.13;;;22.60;54.30;;;;;;5094970;28;20441;-74
2020/12/26 06:37:38;;;;;;;5.93;4.70;;;22.50;54.20;;;;;;5093578;28;20432;-74
2020/12/26 06:40:31;;;;;;;5.50;4.50;;;22.50;54.20;;;;;;5095106;28;20960;-74
2020/12/26 06:42:57;;;;;;;4.90;4.40;;;22.60;54.20;;;;;;5094962;28;20177;-74
2020/12/26 06:45:36;;;;;;;5.23;4.73;;;22.50;54.20;;;;;;5093444;28;20416;-74
2020/12/26 06:48:03;;;;;;;4.53;4.03;;;22.50;54.10;;;;;;5094908;28;20224;-74
2020/12/26 06:50:33;;;;;;;5.10;4.60;;;22.50;54.20;;;;;;5094815;28;20461;-74
2020/12/26 06:53:00;;;;;;;4.57;4.07;;;22.60;54.20;;;;;;5094647;28;20411;-74
2020/12/26 06:55:49;;;;;;;4.40;3.83;;;22.60;54.20;;;;;;5094406;28;20769;-74
2020/12/26 06:58:24;;;;;;;4.83;4.33;;;22.60;54.20;;;;;;5094511;28;20923;-74
2020/12/26 07:00:50;;;;;;;5.37;4.63;;;22.60;54.20;;;;;;5093209;28;20932;-74
2020/12/26 07:03:22;;;;;;;6.27;4.60;;;22.50;54.10;;;;;;5094565;28;20834;-73
2020/12/26 07:05:49;;;;;;;4.93;4.47;;;22.60;54.20;;;;;;5094222;28;20431;-74
2020/12/26 07:08:26;;;;;;;5.23;4.40;;;22.60;54.20;;;;;;5094367;28;20461;-74
2020/12/26 07:10:52;;;;;;;4.83;4.43;;;22.60;54.20;;;;;;5094552;28;20517;-73
2020/12/26 07:13:44;;;;;;;4.80;4.10;;;22.50;54.10;;;;;;5093009;28;20629;-73
2020/12/26 07:16:45;;;;;;;5.37;4.40;;;22.60;54.20;;;;;;5094044;28;20520;-74
2020/12/26 07:19:20;;;;;;;5.60;5.10;;;22.60;54.20;;;;;;5092823;28;21000;-74
2020/12/26 07:21:49;;;;;;;4.70;3.77;;;22.60;54.20;;;;;;5094130;28;20476;-73
2020/12/26 07:24:37;;;;;;;5.37;3.83;;;22.50;54.20;;;;;;5094218;28;20423;-73
2020/12/26 07:27:27;;;;;;;4.53;4.13;;;22.60;54.20;;;;;;5093938;28;20434;-74
2020/12/26 07:30:07;;;;;;;4.10;3.70;;;22.60;54.20;;;;;;5093734;28;20407;-75
2020/12/26 07:32:39;;;;;;;4.30;3.90;;;22.60;54.30;;;;;;5094129;28;20455;-74
2020/12/26 07:35:14;;;;;;;5.30;4.37;;;22.50;54.20;;;;;;5093354;28;20423;-74
2020/12/26 07:37:44;;;;;;;4.60;3.97;;;22.60;54.20;;;;;;5094026;28;20423;-74
2020/12/26 07:40:16;;;;;;;4.23;3.83;;;22.60;54.30;;;;;;5093770;28;20451;-73
2020/12/26 07:42:43;;;;;;;4.90;4.03;;;22.60;54.30;;;;;;5093979;28;20393;-74
2020/12/26 07:45:11;;;;;;;5.07;3.70;;;22.60;54.20;;;;;;5093724;28;20902;-74
2020/12/26 07:47:41;;;;;;;4.77;4.10;;;22.60;54.20;;;;;;5093540;28;20438;-74
2020/12/26 07:50:08;;;;;;;5.57;4.50;;;22.60;54.20;;;;;;5094113;28;20883;-73
2020/12/26 07:52:34;;;;;;;3.93;3.53;;;22.60;54.20;;;;;;5093533;28;20455;-74
2020/12/26 07:55:01;;;;;;;4.33;3.63;;;22.60;54.20;;;;;;5093633;28;20788;-74
2020/12/26 07:57:28;;;;;;;4.07;3.67;;;22.60;54.20;;;;;;5093417;28;20189;-74
2020/12/26 07:59:54;;;;;;;4.30;3.70;;;22.60;54.20;;;;;;5093494;28;20423;-73
2020/12/26 08:02:20;;;;;;;3.90;3.47;;;22.60;54.20;;;;;;5093445;28;20450;-73
2020/12/26 08:04:46;;;;;;;4.00;3.67;;;22.70;54.20;;;;;;5093468;28;20910;-73
2020/12/26 08:07:17;;;;;;;3.60;3.20;;;22.60;54.10;;;;;;5093403;28;20251;-73
2020/12/26 08:09:53;;;;;;;4.33;3.93;;;22.70;54.20;;;;;;5093466;28;20772;-72
2020/12/26 08:12:19;;;;;;;4.60;3.83;;;22.70;54.20;;;;;;5093458;28;20446;-73
2020/12/26 08:14:56;;;;;;;4.10;3.70;;;22.70;54.30;;;;;;5093537;28;20404;-72
2020/12/26 08:17:22;;;;;;;4.30;3.90;;;22.70;54.20;;;;;;5093206;28;20454;-73
2020/12/26 08:19:48;;;;;;;4.00;3.50;;;22.70;54.20;;;;;;5093264;28;20439;-73
2020/12/26 08:22:14;;;;;;;4.43;3.53;;;22.70;54.20;;;;;;5093285;28;20444;-73
2020/12/26 08:24:40;;;;;;;4.47;3.83;;;22.70;54.20;;;;;;5093327;28;20227;-73
2020/12/26 08:27:06;;;;;;;5.30;3.80;;;22.70;54.20;;;;;;5093141;28;20979;-73
2020/12/26 08:29:33;;;;;;;5.47;4.17;;;22.70;54.20;;;;;;5093650;28;20272;-73
2020/12/26 08:32:09;;;;;;;4.33;3.20;;;22.70;54.20;;;;;;5093181;28;20208;-73
2020/12/26 08:34:41;;;;;;;3.37;2.70;;;22.70;54.20;;;;;;5093305;28;20396;-73
2020/12/26 08:37:18;;;;;;;5.13;3.67;;;22.70;54.20;;;;;;5092864;28;20531;-73
2020/12/26 08:39:44;;;;;;;4.30;3.90;;;22.70;54.20;;;;;;5093593;28;20407;-73
2020/12/26 08:42:19;;;;;;;4.00;3.50;;;22.60;54.10;;;;;;5097462;28;20400;-74
2020/12/26 08:44:45;;;;;;;3.63;3.33;;;22.70;54.10;;;;;;5097117;28;20402;-73
2020/12/26 08:47:10;;;;;;;4.93;3.70;;;22.70;54.10;;;;;;5097017;28;20456;-73
2020/12/26 08:49:44;;;;;;;4.23;3.50;;;22.60;54.00;;;;;;5097267;28;20303;-73
2020/12/26 08:52:09;;;;;;;4.00;3.60;;;22.70;54.10;;;;;;5096966;28;20563;-73
2020/12/26 08:54:35;;;;;;;5.73;4.30;;;22.70;54.10;;;;;;5096853;28;20434;-73
2020/12/26 08:57:01;;;;;;;13.50;6.40;;;22.60;53.90;;;;;;5096839;28;20231;-73
2020/12/26 08:59:28;;;;;;;8.43;4.30;;;22.60;53.70;;;;;;5096858;28;20569;-74
2020/12/26 09:01:54;;;;;;;8.70;5.03;;;22.60;53.40;;;;;;5097046;28;20219;-72
2020/12/26 09:04:20;;;;;;;5.33;4.83;;;22.60;52.90;;;;;;5097046;28;20487;-74
2020/12/26 09:06:46;;;;;;;4.87;3.50;;;22.60;52.60;;;;;;5096644;28;20538;-74
2020/12/26 09:09:24;;;;;;;6.90;4.10;;;22.60;52.40;;;;;;5096553;28;20636;-74
2020/12/26 09:12:05;;;;;;;6.40;3.80;;;22.50;52.50;;;;;;5096879;28;20281;-74
2020/12/26 09:14:31;;;;;;;5.53;3.33;;;22.50;52.50;;;;;;5096839;28;20414;-74
2020/12/26 09:17:02;;;;;;;6.23;3.90;;;22.50;52.40;;;;;;5096385;28;20430;-74
2020/12/26 09:19:44;;;;;;;5.30;4.20;;;22.50;52.50;;;;;;5096894;28;20404;-74
2020/12/26 09:22:11;;;;;;;6.07;3.97;;;22.60;52.70;;;;;;5097221;28;20878;-74
2020/12/26 09:24:36;;;;;;;7.27;3.23;;;22.50;52.80;;;;;;5096417;28;20414;-73
2020/12/26 09:27:02;;;;;;;3.50;3.20;;;22.60;52.80;;;;;;5096265;28;20510;-75
2020/12/26 09:29:28;;;;;;;4.53;3.07;;;22.50;52.60;;;;;;5096737;28;20642;-74
2020/12/26 09:31:53;;;;;;;5.80;4.13;;;22.50;52.60;;;;;;5094297;28;20216;-73
2020/12/26 09:34:26;;;;;;;6.27;4.00;;;22.50;52.60;;;;;;5096358;28;20173;-74
2020/12/26 09:37:07;;;;;;;8.10;4.10;;;22.50;52.50;;;;;;5096243;28;20189;-74
2020/12/26 09:39:33;;;;;;;3.30;2.97;;;22.50;52.40;;;;;;5094307;28;20412;-75
2020/12/26 09:41:58;;;;;;;6.03;3.90;;;22.50;52.50;;;;;;5096001;28;20415;-74
2020/12/26 09:44:24;;;;;;;4.50;3.30;;;22.50;52.50;;;;;;5095560;28;20914;-75
2020/12/26 09:46:59;;;;;;;10.20;3.30;;;22.50;52.50;;;;;;5095613;28;20596;-74
2020/12/26 09:49:25;;;;;;;7.20;3.00;;;22.50;52.50;;;;;;5095491;28;20153;-74
2020/12/26 09:51:50;;;;;;;6.67;3.23;;;22.40;52.30;;;;;;5094013;28;20447;-75
2020/12/26 09:54:16;;;;;;;7.63;3.73;;;22.40;52.40;;;;;;5093903;28;20644;-75
2020/12/26 09:56:42;;;;;;;6.43;3.90;;;22.40;52.10;;;;;;5092897;28;20699;-76
2020/12/26 09:59:08;;;;;;;11.13;3.43;;;22.40;52.20;;;;;;5092324;28;20201;-74
2020/12/26 10:01:34;;;;;;;8.03;3.80;;;22.40;52.20;;;;;;5092991;28;20161;-76
2020/12/26 10:04:00;;;;;;;5.27;3.67;;;22.40;52.20;;;;;;5093128;28;20407;-75
2020/12/26 10:06:26;;;;;;;7.20;3.17;;;22.40;52.20;;;;;;5092890;28;20507;-76
2020/12/26 10:08:52;;;;;;;5.97;3.70;;;22.40;52.30;;;;;;5094544;28;20445;-75
2020/12/26 10:11:19;;;;;;;5.27;3.93;;;22.40;52.20;;;;;;5094985;28;20962;-75
2020/12/26 10:13:46;;;;;;;4.47;2.77;;;22.40;52.30;;;;;;5095281;28;20192;-74
2020/12/26 10:16:14;;;;;;;5.17;2.80;;;22.40;52.90;;;;;;5095586;28;20419;-75
2020/12/26 10:18:39;;;;;;;5.90;3.07;;;22.40;52.40;;;;;;5095327;28;20408;-74
2020/12/26 10:21:05;;;;;;;4.00;3.23;;;22.40;52.40;;;;;;5095543;28;20412;-74
2020/12/26 10:23:31;;;;;;;4.90;3.60;;;22.40;52.50;;;;;;5095545;28;20173;-74
2020/12/26 10:26:03;;;;;;;3.53;3.00;;;22.40;52.40;;;;;;5095107;28;20197;-74
2020/12/26 10:28:30;;;;;;;5.80;3.60;;;22.40;52.50;;;;;;5095269;28;20162;-74
2020/12/26 10:30:55;;;;;;;3.87;3.20;;;22.40;52.50;;;;;;5095017;28;20530;-74
2020/12/26 10:33:21;;;;;;;4.00;2.60;;;22.40;52.60;;;;;;5095020;28;20490;-73
2020/12/26 10:35:46;;;;;;;5.03;3.17;;;22.40;52.60;;;;;;5094964;28;20178;-74
2020/12/26 10:38:12;;;;;;;6.73;3.37;;;22.40;52.70;;;;;;5094928;28;20510;-74
2020/12/26 10:40:37;;;;;;;3.83;3.20;;;22.40;52.70;;;;;;5095283;28;20165;-74
2020/12/26 10:43:03;;;;;;;4.03;3.07;;;22.30;52.70;;;;;;5094966;28;20645;-74
2020/12/26 10:45:29;;;;;;;5.67;3.10;;;22.40;52.90;;;;;;5095051;28;20169;-74
2020/12/26 10:47:54;;;;;;;3.23;2.87;;;22.30;52.80;;;;;;5095023;28;20173;-75
2020/12/26 10:50:20;;;;;;;2.53;2.17;;;22.30;52.90;;;;;;5095158;28;20177;-74
2020/12/26 10:52:45;;;;;;;4.00;2.60;;;22.30;53.00;;;;;;5094589;28;20346;-74
2020/12/26 10:55:17;;;;;;;3.17;2.50;;;22.30;53.10;;;;;;5094717;28;20182;-74
2020/12/26 10:57:43;;;;;;;5.40;3.40;;;22.30;53.10;;;;;;5094778;28;20286;-74
2020/12/26 11:00:17;;;;;;;6.37;3.10;;;22.30;53.10;;;;;;5094744;28;20428;-73
2020/12/26 11:02:43;;;;;;;5.20;3.40;;;22.30;53.10;;;;;;5094089;28;20410;-74
2020/12/26 11:05:08;;;;;;;6.53;2.27;;;22.30;53.10;;;;;;5092478;28;20938;-74
2020/12/26 11:07:35;;;;;;;3.57;2.97;;;22.30;53.10;;;;;;5094813;28;20265;-74
2020/12/26 11:10:00;;;;;;;4.27;2.67;;;22.30;53.20;;;;;;5094417;28;20174;-73
2020/12/26 11:12:26;;;;;;;4.20;2.53;;;22.20;53.20;;;;;;5094357;28;21011;-74
2020/12/26 11:14:52;;;;;;;3.90;2.33;;;22.20;53.20;;;;;;5094285;28;20220;-73
2020/12/26 11:17:17;;;;;;;5.00;3.07;;;22.30;53.30;;;;;;5094189;28;20189;-73
2020/12/26 11:19:43;;;;;;;4.30;2.83;;;22.30;53.30;;;;;;5094453;28;20205;-73
2020/12/26 11:22:08;;;;;;;4.47;3.10;;;22.20;53.20;;;;;;5094125;28;20198;-74
2020/12/26 11:24:34;;;;;;;3.47;2.50;;;22.20;53.20;;;;;;5094543;28;20174;-75
2020/12/26 11:27:00;;;;;;;4.03;2.60;;;22.20;53.30;;;;;;5093907;28;20644;-74
2020/12/26 11:29:25;;;;;;;4.43;3.10;;;22.20;53.30;;;;;;5093957;28;20249;-73
2020/12/26 11:31:51;;;;;;;3.40;2.63;;;22.20;53.30;;;;;;5093837;28;20185;-74
2020/12/26 11:34:17;;;;;;;4.63;2.67;;;22.30;53.40;;;;;;5094138;28;20173;-74
2020/12/26 11:36:43;;;;;;;3.87;2.67;;;22.30;53.40;;;;;;5093756;28;20929;-74
2020/12/26 11:39:10;;;;;;;3.07;2.20;;;22.30;53.40;;;;;;5094081;28;20307;-74
2020/12/26 11:41:36;;;;;;;5.57;3.07;;;22.20;53.30;;;;;;5094034;28;20177;-74
2020/12/26 11:44:02;;;;;;;4.93;3.07;;;22.20;53.30;;;;;;5093721;28;20476;-74
2020/12/26 11:46:29;;;;;;;3.83;2.50;;;22.20;53.30;;;;;;5093545;28;20431;-74
2020/12/26 11:48:54;;;;;;;4.53;2.80;;;22.20;53.40;;;;;;5093573;28;20416;-74
2020/12/26 11:51:20;;;;;;;5.80;2.90;;;22.20;53.40;;;;;;5093786;28;20500;-74
2020/12/26 11:53:46;;;;;;;3.43;2.80;;;22.20;53.40;;;;;;5093559;28;20165;-74
2020/12/26 11:56:16;;;;;;;2.93;2.37;;;22.20;53.40;;;;;;5093375;28;20233;-74
2020/12/26 11:58:43;;;;;;;4.10;2.43;;;22.20;53.50;;;;;;5093725;28;20192;-74
2020/12/26 12:01:09;;;;;;;3.00;2.30;;;22.20;53.50;;;;;;5093453;28;20439;-74
2020/12/26 12:03:36;;;;;;;3.37;2.50;;;22.20;53.50;;;;;;5094117;28;20472;-74
2020/12/26 12:06:03;;;;;;;3.07;2.20;;;22.20;53.60;;;;;;5093584;28;20841;-74
2020/12/26 12:08:29;;;;;;;3.60;2.80;;;22.20;53.60;;;;;;5093373;28;20803;-74
2020/12/26 12:10:54;;;;;;;2.03;1.60;;;22.20;53.60;;;;;;5093224;28;20459;-74
2020/12/26 12:13:20;;;;;;;3.30;2.53;;;22.20;53.50;;;;;;5093360;28;20197;-71
2020/12/26 12:15:46;;;;;;;3.77;2.50;;;22.10;53.50;;;;;;5092750;28;20205;-74
2020/12/26 12:18:12;;;;;;;3.00;2.27;;;22.10;53.50;;;;;;5093256;28;20411;-74
2020/12/26 12:20:37;;;;;;;2.47;1.83;;;22.10;53.50;;;;;;5093324;28;20777;-74
2020/12/26 12:23:04;;;;;;;2.80;2.30;;;22.10;53.50;;;;;;5093170;28;20170;-74
2020/12/26 12:25:29;;;;;;;3.13;2.83;;;22.20;53.60;;;;;;5093124;28;20399;-74
2020/12/26 12:27:56;;;;;;;2.80;2.20;;;22.20;53.50;;;;;;5093135;28;20772;-74
2020/12/26 12:30:25;;;;;;;2.63;2.07;;;22.20;53.60;;;;;;5093094;28;20174;-74
2020/12/26 12:32:51;;;;;;;3.13;2.77;;;22.20;53.60;;;;;;5092904;28;20447;-72
2020/12/26 12:35:17;;;;;;;2.43;1.90;;;22.20;53.60;;;;;;5093081;28;20423;-74
2020/12/26 12:37:47;;;;;;;3.17;2.03;;;22.20;53.60;;;;;;5093249;28;20528;-74
2020/12/26 12:40:13;;;;;;;4.30;2.50;;;22.20;53.50;;;;;;5092952;28;20435;-74
2020/12/26 12:42:39;;;;;;;4.07;2.63;;;22.20;53.60;;;;;;5092980;28;20466;-74
2020/12/26 12:45:04;;;;;;;3.87;2.47;;;22.20;53.50;;;;;;5092940;28;20176;-74
2020/12/26 12:47:30;;;;;;;4.17;2.63;;;22.20;53.50;;;;;;5092878;28;20664;-74
2020/12/26 12:49:55;;;;;;;3.50;2.40;;;22.20;53.50;;;;;;5092956;28;20535;-74